Time;durP1;ratioP1;P1;durP2;ratioP2;P2;SDS_P1;SDS_P2;PMS_P1;PMS_P2;Temp;Humidity;BMP_temperature;BMP_pressure;BME280_temperature;BME280_humidity;BME280_pressure;Samples;Min_cycle;Max_cycle;Signal;HPM_P1;HPM_P2
2023/03/01 00:01:08;;;;;;;19.23;11.87;;;-0.50;99.90;;;;;;5031515;28;20171;-38
2023/03/01 00:03:34;;;;;;;18.40;12.27;;;-0.50;99.90;;;;;;5031975;28;20561;-39
2023/03/01 00:06:00;;;;;;;15.93;11.30;;;-0.50;99.90;;;;;;4997727;28;20195;-40
2023/03/01 00:08:27;;;;;;;19.30;11.73;;;-0.50;99.90;;;;;;5014130;28;20183;-39
2023/03/01 00:11:05;;;;;;;15.93;11.83;;;-0.50;99.90;;;;;;5014626;28;20174;-38
2023/03/01 00:13:31;;;;;;;18.93;11.83;;;-0.40;99.90;;;;;;5014483;28;20209;-38
2023/03/01 00:15:57;;;;;;;21.43;11.90;;;-0.40;99.90;;;;;;5032687;28;20175;-38
2023/03/01 00:18:23;;;;;;;19.40;13.03;;;-0.40;99.90;;;;;;5014279;28;20179;-39
2023/03/01 00:20:53;;;;;;;22.30;13.17;;;-0.40;99.90;;;;;;5011282;28;20184;-39
2023/03/01 00:23:19;;;;;;;19.27;12.27;;;-0.50;99.90;;;;;;4978547;28;20215;-39
2023/03/01 00:25:45;;;;;;;23.23;13.47;;;-0.50;99.90;;;;;;4978445;28;20183;-38
2023/03/01 00:28:11;;;;;;;27.17;14.93;;;-0.60;99.90;;;;;;5021116;28;20183;-39
2023/03/01 00:30:37;;;;;;;29.47;17.33;;;-0.60;99.90;;;;;;4998453;28;20206;-38
2023/03/01 00:33:03;;;;;;;34.90;18.07;;;-0.70;99.90;;;;;;5014143;28;20199;-38
2023/03/01 00:35:28;;;;;;;36.50;18.67;;;-0.80;99.90;;;;;;5013719;28;20179;-39
2023/03/01 00:37:57;;;;;;;38.50;20.03;;;-0.80;99.90;;;;;;5013891;28;20178;-40
2023/03/01 00:40:28;;;;;;;46.17;23.57;;;-0.90;99.90;;;;;;5031781;28;20179;-41
2023/03/01 00:42:54;;;;;;;42.23;20.97;;;-1.00;99.90;;;;;;5013565;28;20260;-37
2023/03/01 00:45:21;;;;;;;45.23;21.73;;;-1.00;99.90;;;;;;5014370;28;20179;-39
2023/03/01 00:47:48;;;;;;;44.77;23.03;;;-1.00;99.90;;;;;;5031553;28;20186;-38
2023/03/01 00:50:15;;;;;;;49.13;24.30;;;-1.00;99.90;;;;;;4997750;28;20182;-39
2023/03/01 00:52:41;;;;;;;38.27;20.50;;;-1.00;99.90;;;;;;4997330;28;20236;-39
2023/03/01 00:55:07;;;;;;;45.47;23.37;;;-1.10;99.90;;;;;;5013955;28;20179;-38
2023/03/01 00:57:33;;;;;;;33.10;18.70;;;-1.10;99.90;;;;;;5014050;28;20248;-38
2023/03/01 00:59:59;;;;;;;31.67;17.77;;;-1.20;99.90;;;;;;5013918;28;20210;-39
2023/03/01 01:02:27;;;;;;;29.73;16.47;;;-1.10;99.90;;;;;;5014049;28;20240;-39
2023/03/01 01:04:53;;;;;;;25.43;15.30;;;-1.10;99.90;;;;;;5013654;28;20182;-38
2023/03/01 01:07:19;;;;;;;26.30;15.67;;;-1.20;99.90;;;;;;4997259;28;20179;-37
2023/03/01 01:09:46;;;;;;;28.93;16.20;;;-1.20;99.90;;;;;;5013300;28;20269;-39
2023/03/01 01:12:12;;;;;;;27.23;14.77;;;-1.20;99.90;;;;;;5030970;28;20195;-39
2023/03/01 01:14:38;;;;;;;19.27;12.50;;;-1.20;99.90;;;;;;5013305;28;20175;-38
2023/03/01 01:17:04;;;;;;;22.53;13.77;;;-1.30;99.90;;;;;;5031401;28;20712;-39
2023/03/01 01:19:30;;;;;;;18.20;11.77;;;-1.30;99.90;;;;;;5013253;28;20186;-39
2023/03/01 01:21:56;;;;;;;18.27;11.20;;;-1.30;99.90;;;;;;4997094;28;20293;-40
2023/03/01 01:24:22;;;;;;;17.43;11.03;;;-1.20;99.90;;;;;;4993879;28;20344;-39
2023/03/01 01:26:49;;;;;;;17.33;11.27;;;-1.30;99.90;;;;;;5010086;28;20182;-39
2023/03/01 01:29:15;;;;;;;18.17;11.47;;;-1.30;99.90;;;;;;5010277;28;20197;-40
2023/03/01 01:31:42;;;;;;;20.77;12.90;;;-1.40;99.90;;;;;;5013602;28;20328;-40
2023/03/01 01:34:12;;;;;;;17.97;11.07;;;-1.40;99.90;;;;;;5013381;28;20194;-39
2023/03/01 01:36:38;;;;;;;20.23;12.23;;;-1.50;99.90;;;;;;4997363;28;20179;-39
2023/03/01 01:39:04;;;;;;;20.07;12.03;;;-1.50;99.90;;;;;;5011833;28;20200;-38
2023/03/01 01:41:30;;;;;;;17.90;11.30;;;-1.50;99.90;;;;;;5012440;28;20202;-42
2023/03/01 01:44:23;;;;;;;18.87;11.47;;;-1.50;99.90;;;;;;4996822;28;20647;-40
2023/03/01 01:46:53;;;;;;;18.10;11.20;;;-1.50;99.90;;;;;;5014240;28;20220;-38
2023/03/01 01:49:27;;;;;;;18.70;11.47;;;-1.50;99.90;;;;;;5013978;28;20181;-38
2023/03/01 01:52:20;;;;;;;17.37;11.77;;;-1.50;99.90;;;;;;5017056;28;20210;-37
2023/03/01 01:55:04;;;;;;;20.53;12.03;;;-1.50;99.90;;;;;;5006221;28;20281;-37
2023/03/01 01:57:51;;;;;;;18.47;11.37;;;-1.50;99.90;;;;;;5034828;28;20178;-37
2023/03/01 02:00:26;;;;;;;20.37;12.47;;;-1.50;99.90;;;;;;5017099;28;20244;-37
2023/03/01 02:02:57;;;;;;;23.03;12.87;;;-1.60;99.90;;;;;;5033194;28;20210;-39
2023/03/01 02:05:47;;;;;;;22.80;12.07;;;-1.60;99.90;;;;;;4999494;28;20183;-39
2023/03/01 02:08:15;;;;;;;20.50;13.03;;;-1.60;99.90;;;;;;5000668;28;20178;-38
2023/03/01 02:10:42;;;;;;;22.20;13.37;;;-1.60;99.90;;;;;;5016768;28;20179;-38
2023/03/01 02:13:10;;;;;;;18.73;12.33;;;-1.60;99.90;;;;;;5017192;28;20218;-40
2023/03/01 02:15:39;;;;;;;18.83;12.47;;;-1.60;99.90;;;;;;5033398;28;20202;-39
2023/03/01 02:18:06;;;;;;;24.33;13.53;;;-1.60;99.90;;;;;;5016960;28;20252;-38
2023/03/01 02:20:57;;;;;;;23.30;14.33;;;-1.60;99.90;;;;;;5000565;28;20179;-41
2023/03/01 02:23:23;;;;;;;24.00;14.33;;;-1.60;99.90;;;;;;4996558;28;20222;-39
2023/03/01 02:26:26;;;;;;;24.90;13.67;;;-1.60;99.90;;;;;;4996957;28;20187;-39
2023/03/01 02:28:52;;;;;;;20.93;12.73;;;-1.60;99.90;;;;;;5016694;28;20178;-39
2023/03/01 02:34:33;;;;;;;20.40;12.70;;;-1.50;99.90;;;;;;5033764;28;20181;-38
2023/03/01 02:37:09;;;;;;;20.67;11.90;;;-1.50;99.90;;;;;;5013258;28;20639;-37
2023/03/01 02:39:42;;;;;;;21.43;12.60;;;-1.40;99.90;;;;;;5034298;28;20181;-37
2023/03/01 02:42:13;;;;;;;22.07;13.43;;;-1.40;99.90;;;;;;5002298;28;20210;-37
2023/03/01 02:44:39;;;;;;;20.07;13.10;;;-1.40;99.90;;;;;;4996665;28;20210;-37
2023/03/01 02:47:05;;;;;;;19.07;13.07;;;-1.40;99.90;;;;;;5005480;28;20174;-37
2023/03/01 02:49:35;;;;;;;19.13;13.07;;;-1.30;99.90;;;;;;5016409;28;20270;-37
2023/03/01 02:52:31;;;;;;;21.63;13.00;;;-1.30;99.90;;;;;;5015962;28;20206;-39
2023/03/01 02:55:07;;;;;;;21.13;13.17;;;-1.30;99.90;;;;;;5012773;28;20213;-37
2023/03/01 02:57:35;;;;;;;19.87;13.20;;;-1.20;99.90;;;;;;4999447;28;20232;-37
2023/03/01 03:00:18;;;;;;;22.33;13.37;;;-1.20;99.90;;;;;;5015936;28;20178;-39
2023/03/01 03:02:46;;;;;;;22.53;13.37;;;-1.20;99.90;;;;;;4996287;28;20211;-40
2023/03/01 03:05:20;;;;;;;20.63;13.07;;;-1.10;99.90;;;;;;5012554;28;20257;-40
2023/03/01 03:07:48;;;;;;;20.93;13.27;;;-1.10;99.90;;;;;;5012655;28;20202;-41
2023/03/01 03:10:20;;;;;;;24.33;13.40;;;-1.10;99.90;;;;;;4999549;28;20197;-39
2023/03/01 03:12:51;;;;;;;22.30;12.70;;;-1.10;99.90;;;;;;5031726;28;20210;-39
2023/03/01 03:15:18;;;;;;;20.10;12.20;;;-1.00;99.90;;;;;;5015142;28;20190;-38
2023/03/01 03:17:44;;;;;;;18.83;12.47;;;-1.00;99.90;;;;;;5032967;28;20176;-37
2023/03/01 03:20:12;;;;;;;20.90;12.97;;;-1.00;99.90;;;;;;5033017;28;20174;-38
2023/03/01 03:22:41;;;;;;;23.00;13.80;;;-0.90;99.90;;;;;;5033392;28;20236;-37
2023/03/01 03:25:11;;;;;;;20.37;13.77;;;-0.90;99.90;;;;;;5015553;28;20190;-38
2023/03/01 03:27:37;;;;;;;21.27;13.00;;;-0.90;99.90;;;;;;5032949;28;20179;-38
2023/03/01 03:30:08;;;;;;;22.43;13.47;;;-0.90;99.90;;;;;;4999481;28;20190;-37
2023/03/01 03:32:38;;;;;;;23.20;14.03;;;-0.90;99.90;;;;;;5031581;28;20209;-37
2023/03/01 03:35:09;;;;;;;20.83;14.20;;;-0.90;99.90;;;;;;5014454;28;20208;-37
2023/03/01 03:40:24;;;;;;;22.47;13.30;;;-0.80;99.90;;;;;;5020443;28;20186;-37
2023/03/01 03:42:50;;;;;;;23.30;14.27;;;-0.80;99.90;;;;;;5015124;28;20206;-38
2023/03/01 03:45:17;;;;;;;18.90;13.23;;;-0.80;99.90;;;;;;5015711;28;20205;-38
2023/03/01 03:47:44;;;;;;;21.97;13.53;;;-0.80;99.90;;;;;;5014955;28;20178;-37
2023/03/01 03:50:11;;;;;;;23.67;14.33;;;-0.70;99.90;;;;;;5014925;28;20179;-39
2023/03/01 03:52:37;;;;;;;21.10;13.70;;;-0.70;99.90;;;;;;5014788;28;20238;-37
2023/03/01 03:55:09;;;;;;;22.77;14.87;;;-0.70;99.90;;;;;;5014755;28;20214;-37
2023/03/01 03:57:35;;;;;;;20.97;13.50;;;-0.70;99.90;;;;;;5031641;28;20187;-36
2023/03/01 04:00:04;;;;;;;24.57;15.00;;;-0.60;99.90;;;;;;5032210;28;20187;-40
2023/03/01 04:02:38;;;;;;;24.27;15.40;;;-0.60;99.90;;;;;;5016083;28;20221;-37
2023/03/01 04:05:05;;;;;;;25.67;16.77;;;-0.60;99.90;;;;;;5032498;28;20179;-38
2023/03/01 04:07:31;;;;;;;22.20;14.23;;;-0.60;99.90;;;;;;4998664;28;20175;-37
2023/03/01 04:09:56;;;;;;;24.13;14.23;;;-0.50;99.90;;;;;;5000440;28;20187;-39
2023/03/01 04:12:22;;;;;;;22.57;13.23;;;-0.50;99.90;;;;;;5031309;28;20203;-37
2023/03/01 04:14:48;;;;;;;22.63;13.63;;;-0.50;99.90;;;;;;5014231;28;20190;-37
2023/03/01 04:17:14;;;;;;;21.43;13.33;;;-0.40;99.90;;;;;;5014623;28;20194;-37
2023/03/01 04:19:40;;;;;;;22.87;13.30;;;-0.40;99.90;;;;;;5031619;28;20234;-37
2023/03/01 04:22:09;;;;;;;22.13;12.93;;;-0.30;99.90;;;;;;5014316;28;20293;-39
2023/03/01 04:24:38;;;;;;;20.93;13.13;;;-0.30;99.90;;;;;;5014357;28;20271;-39
2023/03/01 04:27:03;;;;;;;21.53;12.73;;;-0.30;99.90;;;;;;5014663;28;20187;-39
2023/03/01 04:29:29;;;;;;;20.77;13.60;;;-0.20;99.90;;;;;;5031989;28;20179;-39
2023/03/01 04:31:55;;;;;;;21.03;13.33;;;-0.20;99.90;;;;;;5014352;28;20257;-39
2023/03/01 04:34:21;;;;;;;22.30;14.33;;;-0.20;99.90;;;;;;5013809;28;20179;-37
2023/03/01 04:36:46;;;;;;;25.00;14.27;;;-0.20;99.90;;;;;;5013824;28;20184;-38
2023/03/01 04:39:12;;;;;;;23.70;13.93;;;-0.20;99.90;;;;;;5014601;28;20277;-40
2023/03/01 04:42:00;;;;;;;22.07;13.40;;;-0.20;99.90;;;;;;5039837;28;20206;-39
2023/03/01 04:45:00;;;;;;;22.67;13.23;;;-0.10;99.90;;;;;;5039358;28;20171;-38
2023/03/01 04:47:42;;;;;;;23.57;13.73;;;-0.10;99.90;;;;;;4991459;28;20227;-85
2023/03/01 04:50:11;;;;;;;21.87;13.07;;;-0.10;99.90;;;;;;4975227;28;20176;-85
2023/03/01 04:52:39;;;;;;;22.17;13.90;;;-0.10;99.90;;;;;;4973010;28;20189;-85
2023/03/01 04:55:15;;;;;;;21.40;13.70;;;-0.10;99.90;;;;;;4975216;28;20204;-85
2023/03/01 04:57:43;;;;;;;21.43;13.43;;;0.00;99.90;;;;;;4991592;28;20234;-85
2023/03/01 05:00:21;;;;;;;24.70;14.20;;;0.00;99.90;;;;;;4975382;28;20211;-85
2023/03/01 05:02:54;;;;;;;25.40;15.13;;;0.00;99.90;;;;;;4974853;28;20223;-85
2023/03/01 05:05:30;;;;;;;21.43;13.33;;;0.00;99.90;;;;;;4975351;28;20670;-85
2023/03/01 05:07:58;;;;;;;22.77;14.60;;;0.00;99.90;;;;;;4959595;28;20180;-84
2023/03/01 05:10:26;;;;;;;22.57;14.93;;;-0.10;99.90;;;;;;4965252;28;20182;-85
2023/03/01 05:12:52;;;;;;;22.90;15.07;;;-0.10;99.90;;;;;;4993777;28;20181;-79
2023/03/01 05:15:21;;;;;;;24.17;14.23;;;-0.10;99.90;;;;;;4976296;28;20223;-85
2023/03/01 05:17:48;;;;;;;24.27;14.03;;;-0.20;99.90;;;;;;4959638;28;20208;-85
2023/03/01 05:20:14;;;;;;;22.90;14.60;;;-0.20;99.90;;;;;;4959796;28;20191;-85
2023/03/01 05:22:40;;;;;;;25.47;14.70;;;-0.20;99.90;;;;;;4976104;28;20205;-85
2023/03/01 05:25:07;;;;;;;23.20;14.43;;;-0.20;99.90;;;;;;4959376;28;20211;-85
2023/03/01 05:27:33;;;;;;;24.60;13.87;;;-0.10;99.90;;;;;;4975965;28;20172;-85
2023/03/01 05:30:11;;;;;;;21.13;14.50;;;-0.10;99.90;;;;;;4960087;28;20176;-85
2023/03/01 05:32:45;;;;;;;23.10;14.77;;;-0.10;99.90;;;;;;4959805;28;20189;-85
2023/03/01 05:35:15;;;;;;;25.40;14.33;;;-0.10;99.90;;;;;;4959388;28;20208;-85
2023/03/01 05:37:42;;;;;;;24.37;15.10;;;-0.10;99.90;;;;;;4975800;28;20173;-85
2023/03/01 05:40:15;;;;;;;21.47;13.97;;;0.00;99.90;;;;;;4975267;28;20204;-85
2023/03/01 05:42:54;;;;;;;21.90;14.33;;;0.00;99.90;;;;;;4965445;28;20205;-85
2023/03/01 05:45:21;;;;;;;22.23;14.67;;;0.00;99.90;;;;;;4955966;28;20228;-84
2023/03/01 05:47:49;;;;;;;24.17;14.80;;;0.00;99.90;;;;;;4972208;28;20177;-85
2023/03/01 05:50:18;;;;;;;27.50;15.67;;;0.00;99.90;;;;;;4959344;28;20271;-85
2023/03/01 05:52:50;;;;;;;24.83;14.97;;;0.00;99.90;;;;;;4960192;28;20196;-85
2023/03/01 05:55:18;;;;;;;22.60;14.20;;;0.10;99.90;;;;;;4959921;28;20292;-85
2023/03/01 05:57:46;;;;;;;20.83;14.90;;;0.10;99.90;;;;;;4974900;28;20181;-85
2023/03/01 06:00:14;;;;;;;24.30;14.90;;;0.10;99.90;;;;;;4958748;28;20192;-85
2023/03/01 06:02:41;;;;;;;22.10;14.33;;;0.10;99.90;;;;;;4974787;28;20208;-85
2023/03/01 06:05:10;;;;;;;23.37;14.63;;;0.10;99.90;;;;;;4974665;28;20201;-85
2023/03/01 06:07:36;;;;;;;21.97;13.90;;;0.10;99.90;;;;;;4992452;28;20192;-85
2023/03/01 06:10:04;;;;;;;23.83;14.30;;;0.10;99.90;;;;;;4978736;28;20610;-85
2023/03/01 06:12:32;;;;;;;21.53;14.13;;;0.10;99.90;;;;;;4974853;28;20192;-85
2023/03/01 06:14:59;;;;;;;22.97;14.87;;;0.10;99.90;;;;;;4975171;28;20239;-86
2023/03/01 06:17:25;;;;;;;25.67;14.93;;;0.20;99.90;;;;;;4975552;28;20185;-85
2023/03/01 06:19:50;;;;;;;26.27;16.53;;;0.20;99.90;;;;;;4959213;28;20181;-85
2023/03/01 06:22:16;;;;;;;24.60;15.17;;;0.10;99.90;;;;;;4958692;28;20219;-85
2023/03/01 06:24:42;;;;;;;24.37;15.50;;;0.20;99.90;;;;;;4958392;28;20212;-85
2023/03/01 06:27:08;;;;;;;24.27;15.27;;;0.20;99.90;;;;;;4974681;28;20214;-85
2023/03/01 06:29:34;;;;;;;26.27;15.27;;;0.20;99.90;;;;;;4974667;28;20216;-85
2023/03/01 06:32:00;;;;;;;27.67;15.90;;;0.20;99.90;;;;;;4958967;28;20189;-85
2023/03/01 06:34:26;;;;;;;25.00;15.07;;;0.20;99.90;;;;;;4958424;28;20204;-85
2023/03/01 06:36:52;;;;;;;24.37;14.93;;;0.20;99.90;;;;;;4977459;28;20190;-85
2023/03/01 06:39:18;;;;;;;24.17;15.40;;;0.20;99.90;;;;;;4978403;28;20194;-85
2023/03/01 06:41:44;;;;;;;24.67;14.33;;;0.30;99.90;;;;;;4977944;28;20228;-85
2023/03/01 06:44:10;;;;;;;21.77;14.20;;;0.30;99.90;;;;;;4978096;28;20205;-85
2023/03/01 06:46:36;;;;;;;24.73;15.73;;;0.30;99.90;;;;;;4977724;28;20193;-85
2023/03/01 06:49:07;;;;;;;24.03;15.27;;;0.40;99.90;;;;;;4961962;28;20166;-86
2023/03/01 06:51:33;;;;;;;23.37;15.33;;;0.40;99.90;;;;;;4995223;28;20196;-85
2023/03/01 06:53:59;;;;;;;29.30;17.27;;;0.50;99.90;;;;;;4961561;28;20291;-85
2023/03/01 06:56:25;;;;;;;28.07;17.40;;;0.50;99.90;;;;;;4967151;28;20230;-85
2023/03/01 06:58:51;;;;;;;24.93;16.77;;;0.50;99.90;;;;;;4992107;28;20178;-85
2023/03/01 07:01:17;;;;;;;27.80;16.67;;;0.50;99.90;;;;;;4969753;28;20169;-85
2023/03/01 07:03:44;;;;;;;24.60;15.73;;;0.50;99.90;;;;;;4960500;28;20217;-85
2023/03/01 07:06:10;;;;;;;21.73;15.03;;;0.60;99.90;;;;;;4993732;28;20184;-85
2023/03/01 07:08:36;;;;;;;25.40;15.30;;;0.60;99.90;;;;;;4996808;28;20185;-85
2023/03/01 07:11:03;;;;;;;24.90;15.20;;;0.60;99.90;;;;;;4989448;28;20228;-85
2023/03/01 07:13:30;;;;;;;22.03;14.87;;;0.60;99.90;;;;;;4987485;28;20194;-86
2023/03/01 07:15:55;;;;;;;26.97;15.83;;;0.60;99.90;;;;;;4987227;28;20177;-85
2023/03/01 07:18:22;;;;;;;23.60;15.90;;;0.60;99.90;;;;;;4987287;28;20190;-85
2023/03/01 07:20:48;;;;;;;23.33;15.20;;;0.70;99.90;;;;;;4995372;28;20192;-85
2023/03/01 07:23:15;;;;;;;33.37;19.40;;;0.70;99.90;;;;;;4994228;28;20210;-85
2023/03/01 07:25:41;;;;;;;29.17;17.97;;;0.80;99.90;;;;;;4977819;28;20202;-86
2023/03/01 07:28:07;;;;;;;28.30;16.70;;;0.80;99.90;;;;;;4961066;28;20182;-86
2023/03/01 07:30:33;;;;;;;23.70;15.83;;;0.90;99.90;;;;;;4977459;28;20627;-85
2023/03/01 07:32:59;;;;;;;25.33;15.97;;;1.00;99.90;;;;;;4977173;28;20284;-86
2023/03/01 07:35:26;;;;;;;26.83;16.50;;;1.00;99.90;;;;;;4976923;28;20310;-86
2023/03/01 07:37:53;;;;;;;22.93;14.57;;;1.10;99.90;;;;;;4960869;28;20191;-86
2023/03/01 07:40:19;;;;;;;24.57;15.27;;;1.20;99.90;;;;;;4993224;28;20659;-86
2023/03/01 07:42:45;;;;;;;24.37;15.60;;;1.20;99.90;;;;;;4967255;28;20279;-85
2023/03/01 07:45:13;;;;;;;24.23;15.47;;;1.30;99.90;;;;;;4973515;28;20207;-86
2023/03/01 07:47:39;;;;;;;26.60;15.63;;;1.30;99.90;;;;;;4956608;28;20183;-86
2023/03/01 07:50:05;;;;;;;23.30;14.90;;;1.40;99.90;;;;;;4973487;28;20175;-85
2023/03/01 07:52:31;;;;;;;25.10;15.33;;;1.40;99.90;;;;;;4978886;28;20187;-88
2023/03/01 07:54:57;;;;;;;22.77;15.73;;;1.50;99.90;;;;;;4987297;28;20211;-84
2023/03/01 07:57:23;;;;;;;20.23;14.07;;;1.60;99.90;;;;;;4981923;28;20284;-85
2023/03/01 07:59:49;;;;;;;22.17;14.87;;;1.60;99.90;;;;;;4961207;28;20179;-85
2023/03/01 08:02:15;;;;;;;23.97;15.20;;;1.80;99.90;;;;;;4976633;28;20214;-85
2023/03/01 08:04:42;;;;;;;21.93;13.73;;;1.80;99.90;;;;;;4959976;28;20242;-85
2023/03/01 08:07:08;;;;;;;22.53;15.40;;;2.00;99.90;;;;;;4960724;28;20179;-85
2023/03/01 08:09:37;;;;;;;23.60;15.60;;;2.10;99.90;;;;;;4976967;28;20202;-85
2023/03/01 08:12:04;;;;;;;25.77;15.30;;;2.20;99.90;;;;;;4976317;28;20194;-87
2023/03/01 08:14:32;;;;;;;24.70;16.00;;;2.20;99.90;;;;;;4977441;28;20226;-87
2023/03/01 08:16:58;;;;;;;23.77;16.57;;;2.20;99.90;;;;;;4971041;28;20182;-87
2023/03/01 08:19:24;;;;;;;22.77;15.03;;;2.30;99.90;;;;;;4992701;28;20186;-87
2023/03/01 08:21:50;;;;;;;23.03;15.13;;;2.40;99.90;;;;;;4967534;28;20219;-87
2023/03/01 08:24:16;;;;;;;24.00;14.97;;;2.50;99.90;;;;;;4973276;28;20199;-87
2023/03/01 08:26:44;;;;;;;24.70;16.03;;;2.60;99.90;;;;;;4960582;28;20180;-87
2023/03/01 08:29:10;;;;;;;25.73;16.80;;;2.70;99.90;;;;;;4959963;28;20171;-87
2023/03/01 08:31:38;;;;;;;27.13;17.33;;;2.80;99.90;;;;;;4960438;28;20763;-87
2023/03/01 08:34:09;;;;;;;24.53;15.57;;;2.90;99.90;;;;;;4993457;28;20207;-86
2023/03/01 08:36:39;;;;;;;23.77;15.43;;;3.00;99.90;;;;;;4960753;28;20271;-86
2023/03/01 08:39:06;;;;;;;23.00;15.50;;;3.00;99.90;;;;;;4960516;28;20191;-86
2023/03/01 08:41:32;;;;;;;23.23;15.97;;;3.10;99.90;;;;;;4960200;28;20218;-85
2023/03/01 08:43:58;;;;;;;24.57;15.73;;;3.00;99.90;;;;;;4959973;28;20295;-85
2023/03/01 08:46:36;;;;;;;24.03;16.93;;;3.10;99.90;;;;;;4959399;28;20289;-85
2023/03/01 08:49:21;;;;;;;27.23;18.13;;;3.10;99.90;;;;;;4959666;28;20179;-85
2023/03/01 08:51:47;;;;;;;26.23;16.20;;;3.20;99.90;;;;;;4989509;28;20227;-86
2023/03/01 08:54:19;;;;;;;20.50;15.33;;;3.20;99.90;;;;;;4975206;28;20211;-86
2023/03/01 08:56:46;;;;;;;23.97;15.87;;;3.30;99.90;;;;;;4991900;28;20186;-86
2023/03/01 08:59:13;;;;;;;24.60;16.33;;;3.30;99.90;;;;;;4969264;28;20179;-86
2023/03/01 09:01:40;;;;;;;26.50;16.53;;;3.50;99.90;;;;;;4993264;28;20175;-86
2023/03/01 09:04:06;;;;;;;25.30;15.47;;;3.60;99.90;;;;;;4959638;28;20204;-85
2023/03/01 09:06:33;;;;;;;22.37;15.17;;;3.70;99.90;;;;;;4981294;28;20238;-86
2023/03/01 09:09:00;;;;;;;23.63;16.10;;;3.80;99.90;;;;;;4995603;28;20190;-85
2023/03/01 09:11:27;;;;;;;26.03;16.30;;;4.00;99.90;;;;;;4981481;28;20180;-85
2023/03/01 09:13:53;;;;;;;25.60;16.50;;;4.00;99.90;;;;;;4977160;28;20210;-86
2023/03/01 09:16:21;;;;;;;22.70;15.20;;;4.10;99.90;;;;;;4976767;28;20180;-85
2023/03/01 09:18:54;;;;;;;23.00;15.67;;;4.20;99.90;;;;;;4961121;28;20186;-86
2023/03/01 09:21:22;;;;;;;21.77;15.83;;;4.30;99.90;;;;;;4977174;28;20536;-86
2023/03/01 09:23:49;;;;;;;24.03;15.80;;;4.30;99.90;;;;;;4960258;28;20226;-86
2023/03/01 09:26:19;;;;;;;24.00;16.17;;;4.30;99.90;;;;;;4959581;28;20180;-86
2023/03/01 09:28:46;;;;;;;21.43;15.80;;;4.50;99.90;;;;;;4959191;28;20184;-85
2023/03/01 09:31:13;;;;;;;24.53;16.43;;;4.70;99.90;;;;;;4959712;28;20176;-86
2023/03/01 09:33:40;;;;;;;23.00;15.90;;;4.80;99.90;;;;;;4959936;28;20184;-85
2023/03/01 09:36:10;;;;;;;23.03;15.30;;;4.70;99.90;;;;;;4960186;28;20203;-86
2023/03/01 09:38:36;;;;;;;23.10;16.57;;;4.90;99.90;;;;;;4959912;28;20188;-85
2023/03/01 09:41:08;;;;;;;24.57;15.33;;;5.20;99.90;;;;;;4964137;28;20180;-87
2023/03/01 09:43:41;;;;;;;23.13;16.30;;;5.30;99.90;;;;;;4954616;28;20696;-86
2023/03/01 09:46:13;;;;;;;23.80;15.33;;;5.50;99.90;;;;;;4972516;28;20196;-86
2023/03/01 09:48:50;;;;;;;20.83;15.60;;;5.60;99.90;;;;;;4973233;28;20228;-85
2023/03/01 09:51:32;;;;;;;22.60;15.57;;;5.70;99.90;;;;;;4972143;28;20193;-86
2023/03/01 09:54:00;;;;;;;23.53;16.10;;;5.90;99.90;;;;;;4955086;28;20287;-86
2023/03/01 09:56:41;;;;;;;21.27;16.13;;;5.90;99.90;;;;;;4955236;28;20263;-86
2023/03/01 09:59:26;;;;;;;22.40;15.07;;;5.80;99.90;;;;;;4972238;28;20162;-86
2023/03/01 10:02:11;;;;;;;21.87;15.73;;;6.00;99.90;;;;;;4955588;28;20215;-86
2023/03/01 10:04:47;;;;;;;22.67;15.23;;;6.10;99.90;;;;;;4939740;28;20283;-86
2023/03/01 10:07:36;;;;;;;21.23;16.13;;;6.20;99.90;;;;;;4956077;28;20182;-86
2023/03/01 10:10:07;;;;;;;23.27;16.07;;;6.20;99.90;;;;;;4984458;28;20227;-86
2023/03/01 10:12:40;;;;;;;22.30;15.30;;;6.30;99.90;;;;;;4978954;28;20205;-86
2023/03/01 10:15:20;;;;;;;22.63;15.50;;;6.20;99.90;;;;;;4978583;28;20193;-86
2023/03/01 10:18:12;;;;;;;23.00;16.30;;;6.20;99.90;;;;;;4962878;28;20198;-86
2023/03/01 10:20:58;;;;;;;21.40;15.07;;;6.30;99.90;;;;;;4979424;28;20185;-79
2023/03/01 10:23:27;;;;;;;22.57;15.93;;;6.40;99.90;;;;;;4962577;28;20264;-85
2023/03/01 10:26:12;;;;;;;22.73;16.53;;;6.30;99.90;;;;;;4978879;28;20191;-86
2023/03/01 10:29:01;;;;;;;24.10;16.40;;;6.40;99.90;;;;;;4962463;28;20171;-86
2023/03/01 10:31:50;;;;;;;21.37;16.30;;;6.20;99.90;;;;;;4962433;28;20181;-86
2023/03/01 10:34:22;;;;;;;22.17;15.63;;;6.30;99.90;;;;;;4994985;28;20234;-86
2023/03/01 10:36:51;;;;;;;23.03;15.90;;;6.00;99.90;;;;;;4962635;28;20186;-86
2023/03/01 10:39:20;;;;;;;21.67;16.23;;;6.10;99.90;;;;;;4962077;28;20224;-86
2023/03/01 10:41:54;;;;;;;23.33;16.27;;;6.10;99.90;;;;;;4978082;28;20183;-86
2023/03/01 10:44:41;;;;;;;21.67;15.80;;;6.10;99.90;;;;;;4978522;28;20208;-86
2023/03/01 10:47:21;;;;;;;21.90;16.00;;;6.40;99.90;;;;;;4978062;28;20193;-86
2023/03/01 10:50:03;;;;;;;22.40;15.50;;;6.60;99.90;;;;;;4962513;28;20182;-86
2023/03/01 10:52:34;;;;;;;21.40;15.63;;;6.80;99.90;;;;;;4962353;28;20180;-86
2023/03/01 10:55:36;;;;;;;23.63;17.60;;;6.90;99.90;;;;;;4961856;28;20207;-85
2023/03/01 10:58:14;;;;;;;24.00;16.57;;;7.10;99.90;;;;;;4977970;28;20198;-86
2023/03/01 11:00:56;;;;;;;23.37;16.43;;;7.10;99.90;;;;;;4977743;28;20178;-86
2023/03/01 11:03:31;;;;;;;20.97;14.90;;;6.90;99.90;;;;;;4978282;28;20320;-86
2023/03/01 11:06:03;;;;;;;23.13;16.37;;;6.80;99.90;;;;;;4961589;28;20257;-86
2023/03/01 11:08:46;;;;;;;20.17;15.57;;;6.70;99.90;;;;;;4961229;28;20184;-86
2023/03/01 11:11:12;;;;;;;22.53;15.70;;;6.70;99.90;;;;;;4969761;28;20215;-86
2023/03/01 11:13:57;;;;;;;23.73;16.17;;;6.80;99.90;;;;;;4977752;28;20222;-86
2023/03/01 11:16:27;;;;;;;22.33;15.70;;;6.80;99.90;;;;;;4978147;28;20185;-86
2023/03/01 11:19:11;;;;;;;23.70;16.50;;;6.90;99.90;;;;;;4961929;28;20186;-86
2023/03/01 11:21:40;;;;;;;22.27;16.57;;;7.10;99.90;;;;;;4977506;28;20198;-86
2023/03/01 11:24:12;;;;;;;24.70;15.07;;;7.20;99.90;;;;;;4977147;28;20210;-86
2023/03/01 11:26:47;;;;;;;22.77;14.93;;;7.30;99.90;;;;;;4977603;28;20663;-86
2023/03/01 11:29:55;;;;;;;21.57;15.40;;;7.40;99.90;;;;;;4978322;28;20164;-79
2023/03/01 11:32:25;;;;;;;20.93;15.10;;;7.30;99.90;;;;;;4915589;29;20201;-86
2023/03/01 11:34:57;;;;;;;20.13;15.40;;;7.50;99.90;;;;;;4915266;29;20262;-86
2023/03/01 11:37:33;;;;;;;21.40;15.27;;;7.60;99.90;;;;;;4959141;28;20281;-86
2023/03/01 11:40:21;;;;;;;21.23;15.77;;;7.80;99.90;;;;;;4960622;28;20331;-86
2023/03/01 11:43:12;;;;;;;21.43;15.47;;;7.90;99.90;;;;;;4954519;28;20203;-86
2023/03/01 11:46:19;;;;;;;20.87;15.87;;;8.00;99.90;;;;;;4960214;28;20217;-86
2023/03/01 11:48:59;;;;;;;22.57;14.83;;;8.10;99.90;;;;;;4950701;28;20215;-86
2023/03/01 11:51:41;;;;;;;21.03;15.43;;;8.20;99.90;;;;;;4956968;28;20212;-86
2023/03/01 11:54:39;;;;;;;22.20;14.97;;;8.30;99.90;;;;;;4986935;28;20199;-86
2023/03/01 11:57:14;;;;;;;20.40;15.17;;;8.30;99.90;;;;;;4976121;28;20192;-86
2023/03/01 12:00:11;;;;;;;23.03;16.23;;;8.40;99.90;;;;;;4960644;28;20183;-86
2023/03/01 12:02:54;;;;;;;20.07;14.60;;;8.50;99.90;;;;;;4976236;28;20204;-86
2023/03/01 12:05:41;;;;;;;20.00;14.67;;;8.50;99.90;;;;;;4984177;28;20196;-86
2023/03/01 12:08:24;;;;;;;19.40;14.87;;;8.60;99.90;;;;;;4980548;28;20285;-86
2023/03/01 12:11:16;;;;;;;19.87;14.30;;;8.70;99.90;;;;;;4982567;28;20172;-86
2023/03/01 12:13:45;;;;;;;18.20;13.73;;;8.50;99.90;;;;;;4969737;28;20192;-87
2023/03/01 12:16:49;;;;;;;18.00;13.70;;;8.30;99.90;;;;;;4960525;28;20184;-87
2023/03/01 12:19:28;;;;;;;20.37;14.33;;;8.60;99.90;;;;;;4975897;28;20192;-86
2023/03/01 12:22:17;;;;;;;18.80;14.00;;;8.80;99.90;;;;;;4976344;28;20526;-87
2023/03/01 12:25:04;;;;;;;19.60;13.93;;;8.90;99.90;;;;;;4976022;28;20196;-87
2023/03/01 12:27:49;;;;;;;18.83;13.13;;;9.10;99.90;;;;;;4960180;28;20268;-86
2023/03/01 12:30:23;;;;;;;16.33;13.47;;;9.30;99.90;;;;;;4959951;28;20183;-86
2023/03/01 12:33:29;;;;;;;17.53;13.07;;;9.40;99.90;;;;;;4959129;28;20218;-87
2023/03/01 12:36:13;;;;;;;18.30;12.83;;;9.60;99.90;;;;;;4990168;28;20253;-87
2023/03/01 12:38:52;;;;;;;18.37;13.33;;;9.70;99.90;;;;;;4974684;28;20255;-86
2023/03/01 12:41:47;;;;;;;18.60;12.93;;;9.80;99.90;;;;;;4975640;28;20175;-87
2023/03/01 12:44:45;;;;;;;16.33;12.47;;;9.80;99.90;;;;;;4987746;28;20239;-86
2023/03/01 12:47:47;;;;;;;16.10;12.27;;;9.80;99.90;;;;;;4959250;28;20191;-87
2023/03/01 12:50:18;;;;;;;17.53;12.97;;;9.80;99.90;;;;;;4962700;28;20190;-87
2023/03/01 12:52:52;;;;;;;17.00;12.60;;;10.00;99.90;;;;;;4959605;28;20175;-85
2023/03/01 12:55:31;;;;;;;17.97;12.83;;;10.00;99.90;;;;;;4975202;28;20210;-85
2023/03/01 12:58:09;;;;;;;16.40;12.43;;;9.70;99.90;;;;;;4959104;28;20242;-85
2023/03/01 13:00:44;;;;;;;15.50;12.13;;;9.80;99.90;;;;;;4969320;28;20238;-86
2023/03/01 13:03:17;;;;;;;18.00;12.87;;;9.90;99.90;;;;;;4959903;28;20254;-86